createdAt,value
2018-07-03T00:01:59.454Z,101384.61
2018-07-03T00:04:28.341Z,101381.70
2018-07-03T00:06:57.192Z,101383.13
2018-07-03T00:09:26.025Z,101387.41
2018-07-03T00:11:54.894Z,101383.64
2018-07-03T00:14:41.661Z,101381.24
2018-07-03T00:17:19.437Z,101377.00
2018-07-03T00:19:49.635Z,101368.67
2018-07-03T00:22:19.171Z,101370.91
2018-07-03T00:24:48.024Z,101367.31
2018-07-03T00:27:17.667Z,101376.91
2018-07-03T00:29:46.612Z,101378.15
2018-07-03T00:32:15.496Z,101379.66
2018-07-03T00:34:44.411Z,101374.38
2018-07-03T00:37:13.255Z,101370.44
2018-07-03T00:39:42.054Z,101367.52
2018-07-03T00:42:10.878Z,101364.29
2018-07-03T00:44:39.705Z,101367.92
2018-07-03T00:47:08.542Z,101374.26
2018-07-03T00:49:37.392Z,101367.06
2018-07-03T00:52:06.266Z,101365.34
2018-07-03T00:54:35.081Z,101364.31
2018-07-03T00:57:04.203Z,101368.60
2018-07-03T00:59:33.025Z,101371.86
2018-07-03T01:02:01.858Z,101370.83
2018-07-03T01:04:30.687Z,101365.20
2018-07-03T01:06:59.545Z,101368.97
2018-07-03T01:09:28.362Z,101363.45
2018-07-03T01:11:57.211Z,101369.83
2018-07-03T01:14:26.049Z,101367.94
2018-07-03T01:16:54.972Z,101364.67
2018-07-03T01:19:30.041Z,101364.86
2018-07-03T01:21:58.882Z,101363.85
2018-07-03T01:24:27.733Z,101367.28
2018-07-03T01:26:56.571Z,101372.95
2018-07-03T01:29:25.407Z,101366.44
2018-07-03T01:31:54.232Z,101367.45
2018-07-03T01:34:23.100Z,101364.39
2018-07-03T01:36:51.942Z,101363.17
2018-07-03T01:39:20.788Z,101365.77
2018-07-03T01:41:49.789Z,101361.09
2018-07-03T01:44:18.659Z,101357.88
2018-07-03T01:46:47.522Z,101351.03
2018-07-03T01:49:16.343Z,101347.91
2018-07-03T01:51:45.193Z,101350.64
2018-07-03T01:54:14.028Z,101354.94
2018-07-03T01:56:42.893Z,101351.18
2018-07-03T01:59:11.730Z,101346.91
2018-07-03T02:01:41.352Z,101355.44
2018-07-03T02:04:13.400Z,101345.34
2018-07-03T02:06:42.255Z,101338.98
2018-07-03T02:09:12.907Z,101337.98
2018-07-03T02:11:42.933Z,101331.98
2018-07-03T02:14:11.787Z,101335.23
2018-07-03T02:16:40.657Z,101329.58
2018-07-03T02:19:09.489Z,101324.28
2018-07-03T02:21:38.346Z,101326.67
2018-07-03T02:24:07.159Z,101322.04
2018-07-03T02:26:36.151Z,101326.36
2018-07-03T02:29:04.994Z,101321.55
2018-07-03T02:31:33.819Z,101321.02
2018-07-03T02:34:02.660Z,101314.19
2018-07-03T02:36:31.510Z,101312.64
2018-07-03T02:39:00.362Z,101311.27
2018-07-03T02:41:29.222Z,101307.86
2018-07-03T02:43:58.066Z,101306.98
2018-07-03T02:46:26.899Z,101301.13
2018-07-03T02:48:58.908Z,101303.88
2018-07-03T02:51:27.947Z,101304.39
2018-07-03T02:53:56.822Z,101311.41
2018-07-03T02:56:25.689Z,101306.59
2018-07-03T02:58:54.948Z,101304.89
2018-07-03T03:01:23.868Z,101307.13
2018-07-03T03:03:52.697Z,101311.55
2018-07-03T03:06:21.555Z,101311.37
2018-07-03T03:08:50.387Z,101312.37
2018-07-03T03:11:22.883Z,101309.95
2018-07-03T03:13:53.815Z,101306.72
2018-07-03T03:16:22.684Z,101304.66
2018-07-03T03:18:51.509Z,101304.27
2018-07-03T03:21:20.438Z,101308.53
2018-07-03T03:23:49.294Z,101304.44
2018-07-03T03:26:18.327Z,101302.38
2018-07-03T03:28:47.156Z,101307.14
2018-07-03T03:31:16.008Z,101301.16
2018-07-03T03:33:44.828Z,101300.47
2018-07-03T03:36:13.676Z,101298.91
2018-07-03T03:38:42.527Z,101296.83
2018-07-03T03:41:11.363Z,101295.21
2018-07-03T03:43:40.163Z,101294.44
2018-07-03T03:46:08.991Z,101294.66
2018-07-03T03:48:37.830Z,101300.41
2018-07-03T03:51:06.657Z,101303.31
2018-07-03T03:53:35.535Z,101305.91
2018-07-03T03:56:04.403Z,101305.88
2018-07-03T03:58:33.230Z,101302.29
2018-07-03T04:01:02.057Z,101303.15
2018-07-03T04:03:30.892Z,101307.92
2018-07-03T04:05:59.805Z,101308.23
2018-07-03T04:08:28.660Z,101318.50
2018-07-03T04:10:57.564Z,101312.84
2018-07-03T04:13:26.415Z,101316.91
2018-07-03T04:15:55.366Z,101316.59
2018-07-03T04:18:30.848Z,101316.44
2018-07-03T04:20:59.855Z,101321.55
2018-07-03T04:23:28.777Z,101319.17
2018-07-03T04:25:57.803Z,101317.67
2018-07-03T04:28:26.652Z,101330.69
2018-07-03T04:30:55.556Z,101324.32
2018-07-03T04:33:24.389Z,101328.30
2018-07-03T04:35:53.251Z,101324.89
2018-07-03T04:38:22.106Z,101325.59
2018-07-03T04:40:50.937Z,101330.36
2018-07-03T04:43:19.816Z,101325.97
2018-07-03T04:45:48.741Z,101332.64
2018-07-03T04:48:17.562Z,101329.40
2018-07-03T04:50:46.450Z,101325.52
2018-07-03T04:53:15.263Z,101327.44
2018-07-03T04:55:44.135Z,101326.77
2018-07-03T04:58:30.447Z,101326.94
2018-07-03T05:00:59.302Z,101329.53
2018-07-03T05:03:28.152Z,101329.88
2018-07-03T05:05:57.018Z,101336.56
2018-07-03T05:08:25.886Z,101337.76
2018-07-03T05:10:54.703Z,101344.95
2018-07-03T05:13:23.566Z,101351.98
2018-07-03T05:15:52.412Z,101351.13
2018-07-03T05:18:21.253Z,101355.58
2018-07-03T05:21:07.930Z,101358.67
2018-07-03T05:23:36.764Z,101363.12
2018-07-03T05:26:05.628Z,101360.89
2018-07-03T05:28:34.470Z,101362.79
2018-07-03T05:31:03.321Z,101358.02
2018-07-03T05:33:32.178Z,101361.78
2018-07-03T05:36:01.021Z,101350.48
2018-07-03T05:38:29.893Z,101352.52
2018-07-03T05:40:58.758Z,101353.78
2018-07-03T05:43:30.430Z,101364.03
2018-07-03T05:45:59.269Z,101361.48
2018-07-03T05:48:28.100Z,101361.30
2018-07-03T05:50:56.959Z,101369.34
2018-07-03T05:53:25.790Z,101363.14
2018-07-03T05:55:54.672Z,101358.31
2018-07-03T05:58:23.543Z,101371.97
2018-07-03T06:00:52.446Z,101358.55
2018-07-03T06:03:21.313Z,101366.18
2018-07-03T06:05:50.147Z,101367.22
2018-07-03T06:08:18.995Z,101366.34
2018-07-03T06:10:47.859Z,101367.33
2018-07-03T06:13:16.721Z,101368.34
2018-07-03T06:15:45.562Z,101365.47
2018-07-03T06:18:14.497Z,101365.38
2018-07-03T06:20:43.386Z,101362.89
2018-07-03T06:23:12.236Z,101360.19
2018-07-03T06:25:41.100Z,101361.69
2018-07-03T06:28:10.120Z,101367.70
2018-07-03T06:30:38.958Z,101368.59
2018-07-03T06:33:07.814Z,101365.42
2018-07-03T06:35:36.634Z,101363.03
2018-07-03T06:38:05.561Z,101351.66
2018-07-03T06:40:34.419Z,101354.19
2018-07-03T06:43:03.260Z,101363.75
2018-07-03T06:45:32.100Z,101359.88
2018-07-03T06:48:00.932Z,101353.41
2018-07-03T06:50:29.910Z,101357.91
2018-07-03T06:52:58.773Z,101360.73
2018-07-03T06:55:27.641Z,101357.13
2018-07-03T06:57:56.544Z,101350.30
2018-07-03T07:00:25.340Z,101353.81
2018-07-03T07:02:54.154Z,101340.75
2018-07-03T07:05:23.008Z,101348.23
2018-07-03T07:07:51.827Z,101339.40
2018-07-03T07:10:20.680Z,101343.59
2018-07-03T07:12:49.580Z,101338.69
2018-07-03T07:15:18.430Z,101341.95
2018-07-03T07:17:47.294Z,101343.06
2018-07-03T07:20:16.181Z,101344.84
2018-07-03T07:22:45.035Z,101339.88
2018-07-03T07:25:13.879Z,101340.22
2018-07-03T07:27:42.712Z,101341.77
2018-07-03T07:30:11.565Z,101341.12
2018-07-03T07:32:40.391Z,101341.00
2018-07-03T07:35:15.222Z,101340.31
2018-07-03T07:37:44.064Z,101343.96
2018-07-03T07:40:12.901Z,101341.20
2018-07-03T07:42:41.897Z,101344.47
2018-07-03T07:45:10.661Z,101342.20
2018-07-03T07:47:39.514Z,101343.52
2018-07-03T07:50:08.348Z,101345.96
2018-07-03T07:52:37.209Z,101345.67
2018-07-03T07:55:06.025Z,101352.95
2018-07-03T07:58:31.476Z,101349.06
2018-07-03T08:01:00.301Z,101339.34
2018-07-03T08:03:29.207Z,101346.02
2018-07-03T08:05:58.103Z,101344.08
2018-07-03T08:08:27.141Z,101340.42
2018-07-03T08:10:55.977Z,101339.90
2018-07-03T08:13:24.862Z,101339.66
2018-07-03T08:15:53.686Z,101345.67
2018-07-03T08:18:22.602Z,101341.56
2018-07-03T08:21:00.126Z,101348.87
2018-07-03T08:23:28.967Z,101338.97
2018-07-03T08:25:57.800Z,101336.48
2018-07-03T08:28:26.612Z,101334.77
2018-07-03T08:30:55.509Z,101333.04
2018-07-03T08:33:24.325Z,101329.34
2018-07-03T08:35:53.163Z,101330.70
2018-07-03T08:38:22.012Z,101323.47
2018-07-03T08:40:53.520Z,101320.73
2018-07-03T08:43:22.383Z,101316.61
2018-07-03T08:45:52.015Z,101319.63
2018-07-03T08:48:21.006Z,101319.08
2018-07-03T08:50:49.970Z,101318.47
2018-07-03T08:53:18.807Z,101311.58
2018-07-03T08:55:47.657Z,101309.67
2018-07-03T08:58:16.573Z,101316.13
2018-07-03T09:00:45.588Z,101316.06
2018-07-03T09:03:14.429Z,101313.84
2018-07-03T09:05:43.261Z,101313.62
2018-07-03T09:08:12.098Z,101310.11
2018-07-03T09:10:40.913Z,101313.38
2018-07-03T09:13:09.765Z,101312.59
2018-07-03T09:15:38.590Z,101305.06
2018-07-03T09:18:07.669Z,101311.83
2018-07-03T09:20:36.432Z,101306.56
2018-07-03T09:23:05.294Z,101302.21
2018-07-03T09:25:34.312Z,101304.11
2018-07-03T09:28:03.133Z,101302.36
2018-07-03T09:30:32.114Z,101293.88
2018-07-03T09:33:00.882Z,101292.90
2018-07-03T09:35:29.792Z,101299.62
2018-07-03T09:37:58.620Z,101288.23
2018-07-03T09:40:27.486Z,101289.30
2018-07-03T09:42:56.262Z,101278.80
2018-07-03T09:45:25.079Z,101282.17
2018-07-03T09:47:55.203Z,101276.57
2018-07-03T09:50:24.097Z,101280.81
2018-07-03T09:52:52.943Z,101280.16
2018-07-03T09:55:21.854Z,101268.71
2018-07-03T09:57:50.743Z,101274.56
2018-07-03T10:00:37.374Z,101257.48
2018-07-03T10:03:06.289Z,101262.23
2018-07-03T10:05:35.136Z,101257.81
2018-07-03T10:08:58.436Z,101264.85
2018-07-03T10:11:27.296Z,101265.36
2018-07-03T10:13:56.190Z,101264.85
2018-07-03T10:16:25.042Z,101263.63
2018-07-03T10:18:53.902Z,101264.50
2018-07-03T10:21:22.674Z,101258.62
2018-07-03T10:23:51.554Z,101265.94
2018-07-03T10:26:20.403Z,101258.65
2018-07-03T10:28:49.243Z,101261.06
2018-07-03T10:31:18.094Z,101256.04
2018-07-03T10:33:46.919Z,101252.73
2018-07-03T10:36:15.762Z,101263.52
2018-07-03T10:38:44.601Z,101260.67
2018-07-03T10:41:13.555Z,101257.73
2018-07-03T10:43:42.317Z,101255.31
2018-07-03T10:46:11.378Z,101256.58
2018-07-03T10:48:40.225Z,101252.98
2018-07-03T10:51:09.126Z,101252.44
2018-07-03T10:53:39.101Z,101247.72
2018-07-03T10:56:07.955Z,101252.00
2018-07-03T10:58:36.829Z,101243.31
2018-07-03T11:01:05.739Z,101241.72
2018-07-03T11:03:34.726Z,101240.86
2018-07-03T11:06:03.623Z,101240.99
2018-07-03T11:08:32.754Z,101244.13
2018-07-03T11:11:01.620Z,101247.07
2018-07-03T11:13:30.529Z,101242.89
2018-07-03T11:15:59.484Z,101248.09
2018-07-03T11:18:28.300Z,101249.58
2018-07-03T11:20:57.159Z,101245.61
2018-07-03T11:23:26.021Z,101241.16
2018-07-03T11:25:54.877Z,101237.23
2018-07-03T11:28:23.714Z,101229.69
2018-07-03T11:30:52.567Z,101228.12
2018-07-03T11:33:21.400Z,101228.39
2018-07-03T11:35:50.233Z,101223.45
2018-07-03T11:38:19.181Z,101227.61
2018-07-03T11:40:48.019Z,101232.52
2018-07-03T11:43:16.963Z,101229.00
2018-07-03T11:45:45.927Z,101228.78
2018-07-03T11:48:14.765Z,101227.23
2018-07-03T11:50:43.605Z,101214.27
2018-07-03T11:53:12.541Z,101222.77
2018-07-03T11:55:41.342Z,101223.37
2018-07-03T11:58:10.281Z,101219.02
2018-07-03T12:00:39.351Z,101213.30
2018-07-03T12:03:08.213Z,101208.48
2018-07-03T12:05:37.125Z,101215.20
2018-07-03T12:08:05.996Z,101205.57
2018-07-03T12:10:34.867Z,101212.97
2018-07-03T12:13:03.748Z,101204.22
2018-07-03T12:15:32.599Z,101192.33
2018-07-03T12:18:01.454Z,101201.69
2018-07-03T12:20:30.308Z,101197.38
2018-07-03T12:23:02.303Z,101199.31
2018-07-03T12:25:31.139Z,101195.16
2018-07-03T12:27:59.987Z,101196.18
2018-07-03T12:30:28.860Z,101188.73
2018-07-03T12:32:57.689Z,101188.16
2018-07-03T12:35:26.514Z,101188.18
2018-07-03T12:37:55.366Z,101183.86
2018-07-03T12:40:24.222Z,101190.17
2018-07-03T12:42:53.068Z,101178.77
2018-07-03T12:45:28.979Z,101177.95
2018-07-03T12:47:57.799Z,101177.17
2018-07-03T12:50:26.644Z,101172.12
2018-07-03T12:52:55.468Z,101175.31
2018-07-03T12:55:24.374Z,101178.17
2018-07-03T12:57:53.220Z,101180.71
2018-07-03T13:00:25.923Z,101173.67
2018-07-03T13:03:01.111Z,101184.08
2018-07-03T13:05:30.929Z,101180.22
2018-07-03T13:08:00.645Z,101171.50
2018-07-03T13:10:29.491Z,101168.63
2018-07-03T13:12:58.336Z,101170.86
2018-07-03T13:15:27.144Z,101170.38
2018-07-03T13:17:56.008Z,101157.09
2018-07-03T13:20:24.852Z,101153.70
2018-07-03T13:22:53.701Z,101152.87
2018-07-03T13:25:22.521Z,101151.69
2018-07-03T13:28:00.008Z,101146.10
2018-07-03T13:30:28.882Z,101148.13
2018-07-03T13:32:57.751Z,101143.73
2018-07-03T13:35:26.598Z,101147.98
2018-07-03T13:37:55.858Z,101147.72
2018-07-03T13:40:24.696Z,101144.64
2018-07-03T13:42:53.804Z,101142.95
2018-07-03T13:45:22.700Z,101142.38
2018-07-03T13:47:51.609Z,101141.54
2018-07-03T13:50:21.181Z,101132.27
2018-07-03T13:52:50.045Z,101133.09
2018-07-03T13:55:18.877Z,101135.08
2018-07-03T13:57:47.676Z,101138.72
2018-07-03T14:00:16.512Z,101134.44
2018-07-03T14:02:45.358Z,101138.34
2018-07-03T14:05:14.239Z,101129.09
2018-07-03T14:07:43.063Z,101123.83
2018-07-03T14:10:11.915Z,101121.58
2018-07-03T14:12:41.741Z,101126.94
2018-07-03T14:15:10.728Z,101126.38
2018-07-03T14:17:39.816Z,101125.81
2018-07-03T14:20:08.707Z,101120.19
2018-07-03T14:22:37.553Z,101116.55
2018-07-03T14:25:06.394Z,101110.91
2018-07-03T14:27:35.232Z,101112.61
2018-07-03T14:30:04.668Z,101107.28
2018-07-03T14:32:33.516Z,101104.47
2018-07-03T14:35:08.680Z,101103.06
2018-07-03T14:37:37.635Z,101103.02
2018-07-03T14:40:06.404Z,101100.54
2018-07-03T14:42:37.155Z,101099.36
2018-07-03T14:45:06.337Z,101097.13
2018-07-03T14:47:35.178Z,101092.64
2018-07-03T14:50:04.048Z,101094.33
2018-07-03T14:52:32.894Z,101089.55
2018-07-03T14:55:01.751Z,101089.52
2018-07-03T14:57:30.855Z,101089.25
2018-07-03T14:59:59.707Z,101083.35
2018-07-03T15:02:30.297Z,101085.88
2018-07-03T15:04:59.130Z,101087.29
2018-07-03T15:07:27.969Z,101086.70
2018-07-03T15:09:56.892Z,101087.54
2018-07-03T15:12:26.041Z,101080.53
2018-07-03T15:14:54.893Z,101094.82
2018-07-03T15:17:24.124Z,101089.76
2018-07-03T15:19:59.603Z,101094.19
2018-07-03T15:22:28.450Z,101088.22
2018-07-03T15:24:57.393Z,101079.80
2018-07-03T15:27:26.204Z,101079.58
2018-07-03T15:29:55.052Z,101069.21
2018-07-03T15:32:23.899Z,101073.14
2018-07-03T15:34:52.732Z,101069.17
2018-07-03T15:37:21.587Z,101066.38
2018-07-03T15:39:50.468Z,101064.14
2018-07-03T15:42:19.296Z,101058.23
2018-07-03T15:45:08.937Z,101068.63
2018-07-03T15:47:37.810Z,101066.63
2018-07-03T15:50:07.877Z,101053.71
2018-07-03T15:52:36.748Z,101048.42
2018-07-03T15:55:06.139Z,101053.16
2018-07-03T15:57:38.009Z,101049.54
2018-07-03T16:00:09.220Z,101048.97
2018-07-03T16:02:38.124Z,101048.72
2018-07-03T16:05:43.753Z,101049.27
2018-07-03T16:08:49.795Z,101047.84
2018-07-03T16:11:18.799Z,101053.16
2018-07-03T16:13:48.413Z,101039.98
2018-07-03T16:16:17.267Z,101041.08
2018-07-03T16:18:46.168Z,101041.61
2018-07-03T16:21:15.166Z,101041.34
2018-07-03T16:23:44.026Z,101039.93
2018-07-03T16:26:12.866Z,101037.41
2018-07-03T16:28:41.729Z,101045.53
2018-07-03T16:31:10.588Z,101043.78
2018-07-03T16:33:39.475Z,101039.77
2018-07-03T16:36:08.428Z,101037.81
2018-07-03T16:38:37.268Z,101037.02
2018-07-03T16:41:06.158Z,101031.66
2018-07-03T16:43:35.012Z,101033.89
2018-07-03T16:46:03.866Z,101032.49
2018-07-03T16:48:32.725Z,101033.31
2018-07-03T16:51:01.540Z,101031.03
2018-07-03T16:53:30.416Z,101029.30
2018-07-03T16:55:59.257Z,101025.62
2018-07-03T16:58:28.114Z,101028.09
2018-07-03T17:00:56.981Z,101030.54
2018-07-03T17:03:26.161Z,101028.00
2018-07-03T17:05:55.125Z,101027.22
2018-07-03T17:08:23.963Z,101029.97
2018-07-03T17:10:52.839Z,101025.98
2018-07-03T17:13:21.696Z,101027.36
2018-07-03T17:15:50.532Z,101034.88
2018-07-03T17:18:19.423Z,101035.12
2018-07-03T17:20:48.303Z,101031.69
2018-07-03T17:23:17.183Z,101029.73
2018-07-03T17:25:49.071Z,101035.38
2018-07-03T17:28:17.931Z,101036.14
2018-07-03T17:30:46.866Z,101032.21
2018-07-03T17:33:15.750Z,101040.25
2018-07-03T17:35:44.644Z,101033.98
2018-07-03T17:38:13.499Z,101035.44
2018-07-03T17:41:19.245Z,101038.39
2018-07-03T17:44:25.405Z,101029.08
2018-07-03T17:46:54.325Z,101031.58
2018-07-03T17:49:23.220Z,101027.47
2018-07-03T17:51:52.071Z,101028.57
2018-07-03T17:54:20.944Z,101029.16
2018-07-03T17:56:49.764Z,101026.29
2018-07-03T17:59:18.809Z,101023.66
2018-07-03T18:01:47.758Z,101023.06
2018-07-03T18:04:16.605Z,101027.75
2018-07-03T18:06:45.579Z,101024.91
2018-07-03T18:09:23.219Z,101032.58
2018-07-03T18:11:52.056Z,101032.81
2018-07-03T18:14:21.032Z,101033.16
2018-07-03T18:16:49.821Z,101036.31
2018-07-03T18:19:36.767Z,101031.97
2018-07-03T18:22:05.598Z,101038.58
2018-07-03T18:24:34.433Z,101028.05
2018-07-03T18:27:03.375Z,101030.46
2018-07-03T18:29:35.300Z,101035.06
2018-07-03T18:32:04.160Z,101038.20
2018-07-03T18:34:33.158Z,101047.13
2018-07-03T18:37:02.138Z,101045.89
2018-07-03T18:39:30.976Z,101050.19
2018-07-03T18:41:59.855Z,101051.50
2018-07-03T18:44:28.753Z,101052.64
2018-07-03T18:46:57.674Z,101065.41
2018-07-03T18:49:26.417Z,101065.25
2018-07-03T18:51:55.333Z,101070.82
2018-07-03T18:54:24.223Z,101066.16
2018-07-03T18:56:53.154Z,101067.37
2018-07-03T18:59:22.081Z,101071.18
2018-07-03T19:01:50.920Z,101070.36
2018-07-03T19:04:19.914Z,101071.55
2018-07-03T19:06:48.823Z,101077.36
2018-07-03T19:09:17.670Z,101082.94
2018-07-03T19:11:46.652Z,101078.06
2018-07-03T19:14:15.661Z,101078.45
2018-07-03T19:16:44.548Z,101083.50
2018-07-03T19:19:13.414Z,101086.31
2018-07-03T19:21:42.308Z,101096.87
2018-07-03T19:24:11.198Z,101096.05
2018-07-03T19:26:40.168Z,101095.27
2018-07-03T19:29:09.161Z,101098.16
2018-07-03T19:31:38.125Z,101098.39
2018-07-03T19:34:07.034Z,101102.95
2018-07-03T19:36:42.218Z,101099.39
2018-07-03T19:39:12.870Z,101103.64
2018-07-03T19:41:42.292Z,101111.45
2018-07-03T19:44:11.504Z,101113.99
2018-07-03T19:46:40.445Z,101118.91
2018-07-03T19:49:09.366Z,101122.96
2018-07-03T19:51:38.207Z,101118.72
2018-07-03T19:54:07.116Z,101124.84
2018-07-03T19:56:35.902Z,101121.73
2018-07-03T19:59:05.221Z,101127.91
2018-07-03T20:01:34.266Z,101132.25
2018-07-03T20:04:03.142Z,101129.91
2018-07-03T20:06:32.431Z,101131.98
2018-07-03T20:09:01.442Z,101128.08
2018-07-03T20:11:30.310Z,101126.01
2018-07-03T20:13:59.629Z,101128.83
2018-07-03T20:16:28.479Z,101129.80
2018-07-03T20:19:00.632Z,101129.97
2018-07-03T20:21:29.352Z,101132.36
2018-07-03T20:23:58.370Z,101124.44
2018-07-03T20:26:27.344Z,101129.63
2018-07-03T20:28:56.530Z,101126.91
2018-07-03T20:31:25.413Z,101128.43
2018-07-03T20:33:54.387Z,101128.53
2018-07-03T20:36:23.524Z,101142.34
2018-07-03T20:38:52.666Z,101137.19
2018-07-03T20:41:21.991Z,101143.59
2018-07-03T20:43:54.330Z,101141.47
2018-07-03T20:46:25.796Z,101146.88
2018-07-03T20:48:57.590Z,101149.16
2018-07-03T20:51:27.497Z,101156.89
2018-07-03T20:53:56.961Z,101154.55
2018-07-03T20:56:27.419Z,101162.98
2018-07-03T20:58:59.393Z,101160.44
2018-07-03T21:01:28.272Z,101163.72
2018-07-03T21:27:25.851Z,101170.53
2018-07-03T21:30:00.638Z,101168.30
2018-07-03T21:32:32.291Z,101172.66
2018-07-03T21:35:03.072Z,101181.88
2018-07-03T21:37:32.118Z,101182.25
2018-07-03T21:40:04.521Z,101179.23
2018-07-03T21:42:33.811Z,101180.52
2018-07-03T21:45:57.652Z,101173.23
2018-07-03T21:48:28.585Z,101170.14
2018-07-03T21:50:55.897Z,101172.54
2018-07-03T21:53:27.694Z,101172.24
2018-07-03T21:55:56.858Z,101170.56
2018-07-03T21:58:26.212Z,101170.56
2018-07-03T22:00:57.937Z,101176.80
2018-07-03T22:03:26.948Z,101173.06
2018-07-03T22:05:56.000Z,101168.70
2018-07-03T22:08:27.011Z,101172.44
2018-07-03T22:10:56.124Z,101172.16
2018-07-03T22:13:27.754Z,101176.06
2018-07-03T22:15:56.625Z,101176.92
2018-07-03T22:18:25.619Z,101174.91
2018-07-03T22:20:57.525Z,101175.36
2018-07-03T22:23:26.857Z,101178.71
2018-07-03T22:25:58.992Z,101182.90
2018-07-03T22:28:28.176Z,101178.44
2018-07-03T22:30:57.398Z,101169.13
2018-07-03T22:33:26.604Z,101174.12
2018-07-03T22:35:55.778Z,101175.16
2018-07-03T22:38:28.226Z,101178.77
2018-07-03T22:40:57.301Z,101172.30
2018-07-03T22:43:26.453Z,101170.92
2018-07-03T22:45:55.944Z,101174.45
2018-07-03T22:48:25.003Z,101172.63
2018-07-03T22:50:54.415Z,101175.95
2018-07-03T22:53:26.458Z,101180.36
2018-07-03T22:55:58.435Z,101176.84
2018-07-03T22:58:27.857Z,101178.63
2018-07-03T23:00:57.061Z,101177.68
2018-07-03T23:03:26.145Z,101177.51
2018-07-03T23:05:55.288Z,101176.66
2018-07-03T23:08:27.239Z,101178.08
2018-07-03T23:10:56.424Z,101175.52
2018-07-03T23:13:25.452Z,101171.12
2018-07-03T23:15:54.539Z,101177.48
2018-07-03T23:18:26.507Z,101177.08
2018-07-03T23:20:55.702Z,101175.89
2018-07-03T23:23:30.431Z,101164.14
2018-07-03T23:25:58.506Z,101170.69
2018-07-03T23:28:27.645Z,101174.61
2018-07-03T23:30:56.717Z,101169.30
2018-07-03T23:33:28.281Z,101164.58
2018-07-03T23:35:57.531Z,101164.58
2018-07-03T23:38:26.729Z,101161.34
2018-07-03T23:40:56.008Z,101161.20
2018-07-03T23:43:25.116Z,101163.95
2018-07-03T23:45:57.361Z,101166.61
2018-07-03T23:49:02.928Z,101169.39
2018-07-03T23:52:08.197Z,101176.88
2018-07-03T23:55:13.585Z,101168.81
2018-07-03T23:58:19.114Z,101175.98
